Ione, Oregon
Current Conditions -  °F | °C
As of 7:53 AM on Friday 28 Nov 2014 (Local Time) from KHRI Reporting Station
Overcast Overcast  
Wind Chill: 53°   Ceiling: 7000
Heat Index: 53°   Visibility: 10mi
Dew Point: 46°   Wind: 0mph
Humidity: 77%   Direction: NA
Pressure: 29.62"   Gusts: NA
Location:  45.5°N, 119.82°W
Report Text: KHRI 281553Z AUTO 00000KT 10SM OVC070 12/08 A2962 RMK AO2 SLP028 T01170078
Loading
Personal Weather Stations






























Interactive Weather Map New forecast layout! Learn more

10-Day Weather Forecast

Advertisements
Track Severe Weather on mobile